createdAt,value
2018-09-15T00:01:02.336Z,67.59
2018-09-15T00:03:31.260Z,67.24
2018-09-15T00:05:59.816Z,66.93
2018-09-15T00:08:28.380Z,67.11
2018-09-15T00:10:56.907Z,67.29
2018-09-15T00:13:25.588Z,67.10
2018-09-15T00:15:54.689Z,67.63
2018-09-15T00:18:27.636Z,67.31
2018-09-15T00:20:56.091Z,67.15
2018-09-15T00:23:25.690Z,67.26
2018-09-15T00:25:55.335Z,67.35
2018-09-15T00:28:23.833Z,67.06
2018-09-15T00:30:52.262Z,67.20
2018-09-15T00:33:21.922Z,67.50
2018-09-15T00:35:50.447Z,67.33
2018-09-15T00:38:18.961Z,68.41
2018-09-15T00:40:47.577Z,69.27
2018-09-15T00:43:16.048Z,68.87
2018-09-15T00:45:44.555Z,68.52
2018-09-15T00:48:13.739Z,68.18
2018-09-15T00:50:42.393Z,67.60
2018-09-15T00:53:10.815Z,68.02
2018-09-15T00:55:39.497Z,67.82
2018-09-15T00:58:08.486Z,67.30
2018-09-15T01:00:37.058Z,68.47
2018-09-15T01:03:05.809Z,68.36
2018-09-15T01:05:35.184Z,67.94
2018-09-15T01:08:03.627Z,68.00
2018-09-15T01:10:38.964Z,67.98
2018-09-15T01:13:07.502Z,67.98
2018-09-15T01:15:36.162Z,68.50
2018-09-15T01:18:09.719Z,68.22
2018-09-15T01:20:38.173Z,67.59
2018-09-15T01:23:08.019Z,67.52
2018-09-15T01:25:36.408Z,67.18
2018-09-15T01:28:05.498Z,66.78
2018-09-15T01:30:36.267Z,66.42
2018-09-15T01:33:04.908Z,66.69
2018-09-15T01:35:33.838Z,66.04
2018-09-15T01:38:03.069Z,66.15
2018-09-15T01:40:31.600Z,66.04
2018-09-15T01:43:00.725Z,66.53
2018-09-15T01:45:29.470Z,66.54
2018-09-15T01:47:57.970Z,66.30
2018-09-15T01:50:26.531Z,65.77
2018-09-15T01:52:55.536Z,65.17
2018-09-15T01:55:23.994Z,65.19
2018-09-15T01:57:53.681Z,65.45
2018-09-15T02:00:22.193Z,64.66
2018-09-15T02:02:50.653Z,65.11
2018-09-15T02:05:19.190Z,65.12
2018-09-15T02:07:47.807Z,64.75
2018-09-15T02:10:17.514Z,64.84
2018-09-15T02:12:46.019Z,64.71
2018-09-15T02:15:14.512Z,64.93
2018-09-15T02:17:44.097Z,64.88
2018-09-15T02:20:13.581Z,65.75
2018-09-15T02:22:43.227Z,65.41
2018-09-15T02:25:11.706Z,65.15
2018-09-15T02:27:41.273Z,65.07
2018-09-15T02:30:09.817Z,64.99
2018-09-15T02:32:38.291Z,65.01
2018-09-15T02:35:06.936Z,65.34
2018-09-15T02:37:35.442Z,65.11
2018-09-15T02:40:04.043Z,65.18
2018-09-15T02:42:32.692Z,65.46
2018-09-15T02:45:02.332Z,65.52
2018-09-15T02:47:31.963Z,65.53
2018-09-15T02:50:00.381Z,65.78
2018-09-15T02:52:28.885Z,65.86
2018-09-15T02:54:57.441Z,65.68
2018-09-15T02:57:27.123Z,65.51
2018-09-15T02:59:55.547Z,66.10
2018-09-15T03:02:24.069Z,65.75
2018-09-15T03:04:53.697Z,65.48
2018-09-15T03:07:22.863Z,65.68
2018-09-15T03:09:55.592Z,65.04
2018-09-15T03:12:24.203Z,65.47
2018-09-15T03:14:52.864Z,65.47
2018-09-15T03:17:21.338Z,65.02
2018-09-15T03:19:49.910Z,64.95
2018-09-15T03:22:18.653Z,65.24
2018-09-15T03:24:47.092Z,65.11
2018-09-15T03:27:16.283Z,65.76
2018-09-15T03:29:45.116Z,65.43
2018-09-15T03:32:13.692Z,65.56
2018-09-15T03:34:43.507Z,65.10
2018-09-15T03:37:12.855Z,64.86
2018-09-15T03:39:42.012Z,65.39
2018-09-15T03:42:10.989Z,65.62
2018-09-15T03:44:39.435Z,66.02
2018-09-15T03:47:08.121Z,66.13
2018-09-15T03:49:36.646Z,65.96
2018-09-15T03:52:06.288Z,65.40
2018-09-15T03:54:34.767Z,65.74
2018-09-15T03:57:04.452Z,65.49
2018-09-15T03:59:32.931Z,65.35
2018-09-15T04:02:01.344Z,64.65
2018-09-15T04:04:30.011Z,64.70
2018-09-15T04:06:58.471Z,65.02
2018-09-15T04:09:27.140Z,64.63
2018-09-15T04:11:55.665Z,65.04
2018-09-15T04:14:25.399Z,64.48
2018-09-15T04:16:53.853Z,64.66
2018-09-15T04:19:22.262Z,64.55
2018-09-15T04:21:51.438Z,65.23
2018-09-15T04:24:20.453Z,64.89
2018-09-15T04:26:49.614Z,64.51
2018-09-15T04:29:18.440Z,64.71
2018-09-15T04:31:46.961Z,65.28
2018-09-15T04:34:15.484Z,64.87
2018-09-15T04:36:44.170Z,65.35
2018-09-15T04:39:13.451Z,65.40
2018-09-15T04:41:42.409Z,65.08
2018-09-15T04:44:10.800Z,65.49
2018-09-15T04:46:39.401Z,65.75
2018-09-15T04:49:07.956Z,65.74
2018-09-15T04:51:36.512Z,66.06
2018-09-15T04:54:04.955Z,65.50
2018-09-15T04:56:33.620Z,65.43
2018-09-15T04:59:03.298Z,65.50
2018-09-15T05:01:33.082Z,65.36
2018-09-15T05:04:01.714Z,65.34
2018-09-15T05:06:30.895Z,65.57
2018-09-15T05:08:59.426Z,65.38
2018-09-15T05:11:28.747Z,65.09
2018-09-15T05:13:57.315Z,65.30
2018-09-15T05:16:25.778Z,65.04
2018-09-15T05:18:54.693Z,64.79
2018-09-15T05:21:23.221Z,65.25
2018-09-15T05:23:52.231Z,65.33
2018-09-15T05:26:20.728Z,64.57
2018-09-15T05:28:50.478Z,64.60
2018-09-15T05:31:19.520Z,64.54
2018-09-15T05:33:48.058Z,64.01
2018-09-15T05:36:18.666Z,63.94
2018-09-15T05:38:47.264Z,64.04
2018-09-15T05:41:17.032Z,63.84
2018-09-15T05:43:45.512Z,63.42
2018-09-15T05:46:14.041Z,63.91
2018-09-15T05:48:42.589Z,63.43
2018-09-15T05:51:11.706Z,63.33
2018-09-15T05:53:40.662Z,62.92
2018-09-15T05:56:09.261Z,62.71
2018-09-15T05:58:38.945Z,62.77
2018-09-15T06:01:07.632Z,62.75
2018-09-15T06:03:36.934Z,62.15
2018-09-15T06:06:05.532Z,61.42
2018-09-15T06:08:34.004Z,61.26
2018-09-15T06:11:02.506Z,60.77
2018-09-15T06:13:32.113Z,60.13
2018-09-15T06:16:01.212Z,59.88
2018-09-15T06:18:30.071Z,60.22
2018-09-15T06:20:58.594Z,59.98
2018-09-15T06:23:27.197Z,59.60
2018-09-15T06:25:55.809Z,58.84
2018-09-15T06:28:24.313Z,58.45
2018-09-15T06:30:54.115Z,57.96
2018-09-15T06:33:22.664Z,57.85
2018-09-15T06:35:51.173Z,56.73
2018-09-15T06:38:20.753Z,57.10
2018-09-15T06:40:50.198Z,56.73
2018-09-15T06:43:19.867Z,56.67
2018-09-15T06:45:49.068Z,55.73
2018-09-15T06:48:17.830Z,55.27
2018-09-15T06:50:47.048Z,53.29
2018-09-15T06:53:16.001Z,50.52
2018-09-15T06:55:44.554Z,48.31
2018-09-15T06:58:13.909Z,46.44
2018-09-15T07:00:42.683Z,42.91
2018-09-15T07:03:11.174Z,41.63
2018-09-15T07:05:40.370Z,39.86
2018-09-15T07:08:09.602Z,36.69
2018-09-15T07:10:38.894Z,35.55
2018-09-15T07:13:07.484Z,35.39
2018-09-15T07:15:37.254Z,35.59
2018-09-15T07:18:05.870Z,34.76
2018-09-15T07:20:34.407Z,34.02
2018-09-15T07:23:02.873Z,32.93
2018-09-15T07:25:31.374Z,31.49
2018-09-15T07:27:59.844Z,31.96
2018-09-15T07:30:29.722Z,30.92
2018-09-15T07:32:58.636Z,29.50
2018-09-15T07:35:27.426Z,29.49
2018-09-15T07:37:56.283Z,28.24
2018-09-15T07:40:24.768Z,27.89
2018-09-15T07:42:53.283Z,27.15
2018-09-15T07:45:22.807Z,27.08
2018-09-15T07:47:53.397Z,26.34
2018-09-15T07:50:21.847Z,25.56
2018-09-15T07:52:50.357Z,23.69
2018-09-15T07:55:18.891Z,23.89
2018-09-15T07:57:47.773Z,23.75
2018-09-15T08:00:16.258Z,23.53
2018-09-15T08:02:45.523Z,23.21
2018-09-15T08:05:14.113Z,22.94
2018-09-15T08:07:42.694Z,22.14
2018-09-15T08:10:11.332Z,21.32
2018-09-15T08:12:40.495Z,20.58
2018-09-15T08:15:09.185Z,19.82
2018-09-15T08:17:37.730Z,21.40
2018-09-15T08:20:06.242Z,21.08
2018-09-15T08:22:34.760Z,20.97
2018-09-15T08:25:04.846Z,20.68
2018-09-15T08:27:33.360Z,19.95
2018-09-15T08:30:02.472Z,18.92
2018-09-15T08:32:31.338Z,17.99
2018-09-15T08:34:59.830Z,18.15
2018-09-15T08:37:28.402Z,17.73
2018-09-15T08:39:57.077Z,17.35
2018-09-15T08:42:26.584Z,17.35
2018-09-15T08:44:56.083Z,17.10
2018-09-15T08:47:24.673Z,15.70
2018-09-15T08:49:53.166Z,15.95
2018-09-15T08:52:22.800Z,15.21
2018-09-15T08:54:52.630Z,15.60
2018-09-15T08:57:21.086Z,15.46
2018-09-15T08:59:50.180Z,14.80
2018-09-15T09:02:19.258Z,14.63
2018-09-15T09:04:47.714Z,15.39
2018-09-15T09:07:17.307Z,14.29
2018-09-15T09:09:45.884Z,14.43
2018-09-15T09:12:14.809Z,15.99
2018-09-15T09:14:43.289Z,19.43
2018-09-15T09:17:12.454Z,20.72
2018-09-15T09:19:42.220Z,21.86
2018-09-15T09:22:11.208Z,20.13
2018-09-15T09:24:39.921Z,20.54
2018-09-15T09:27:08.550Z,20.21
2018-09-15T09:29:37.168Z,20.03
2018-09-15T09:32:06.018Z,18.39
2018-09-15T09:34:34.510Z,17.23
2018-09-15T09:37:03.853Z,17.53
2018-09-15T09:39:32.499Z,17.18
2018-09-15T09:42:02.162Z,16.98
2018-09-15T09:44:31.688Z,16.14
2018-09-15T09:47:00.988Z,15.45
2018-09-15T09:49:29.460Z,15.25
2018-09-15T09:51:58.889Z,15.21
2018-09-15T09:54:27.586Z,14.56
2018-09-15T09:56:56.118Z,15.69
2018-09-15T09:59:24.870Z,16.87
2018-09-15T10:01:58.642Z,15.94
2018-09-15T10:04:27.734Z,15.81
2018-09-15T10:06:56.298Z,14.94
2018-09-15T10:09:25.117Z,14.08
2018-09-15T10:11:53.800Z,15.30
2018-09-15T10:14:22.876Z,15.07
2018-09-15T10:16:52.084Z,14.62
2018-09-15T10:19:21.415Z,14.49
2018-09-15T10:21:50.790Z,14.70
2018-09-15T10:24:19.378Z,14.90
2018-09-15T10:26:48.109Z,15.43
2018-09-15T10:29:17.265Z,15.97
2018-09-15T10:31:45.866Z,14.70
2018-09-15T10:34:14.355Z,13.47
2018-09-15T10:36:42.922Z,12.96
2018-09-15T10:39:11.900Z,12.58
2018-09-15T10:41:41.416Z,12.01
2018-09-15T10:44:10.930Z,12.20
2018-09-15T10:46:39.440Z,11.93
2018-09-15T10:49:08.605Z,11.70
2018-09-15T10:51:43.848Z,12.99
2018-09-15T10:54:13.048Z,13.20
2018-09-15T10:56:41.554Z,13.71
2018-09-15T10:59:10.752Z,13.18
2018-09-15T11:01:39.412Z,15.69
2018-09-15T11:04:08.093Z,16.54
2018-09-15T11:06:36.873Z,17.18
2018-09-15T11:09:08.586Z,17.65
2018-09-15T11:11:37.057Z,16.30
2018-09-15T11:14:05.562Z,16.39
2018-09-15T11:16:34.100Z,16.30
2018-09-15T11:19:03.253Z,15.10
2018-09-15T11:21:31.881Z,15.82
2018-09-15T11:24:00.434Z,16.40
2018-09-15T11:26:28.945Z,17.22
2018-09-15T11:28:57.560Z,17.70
2018-09-15T11:31:26.121Z,18.16
2018-09-15T11:33:54.671Z,20.14
2018-09-15T11:36:23.363Z,20.05
2018-09-15T11:38:52.029Z,17.62
2018-09-15T11:41:20.792Z,16.44
2018-09-15T11:43:49.792Z,15.06
2018-09-15T11:46:18.802Z,15.00
2018-09-15T11:48:47.311Z,14.00
2018-09-15T11:51:15.903Z,14.49
2018-09-15T11:53:44.516Z,13.88
2018-09-15T11:56:12.977Z,13.73
2018-09-15T11:58:41.639Z,13.72
2018-09-15T12:01:10.217Z,14.14
2018-09-15T12:03:39.707Z,13.57
2018-09-15T12:06:09.497Z,13.70
2018-09-15T12:08:39.478Z,13.12
2018-09-15T12:11:08.242Z,12.88
2018-09-15T12:13:36.914Z,13.63
2018-09-15T12:16:05.452Z,14.80
2018-09-15T12:18:34.051Z,17.36
2018-09-15T12:21:09.440Z,16.59
2018-09-15T12:23:38.147Z,15.71
2018-09-15T12:26:06.703Z,14.69
2018-09-15T12:28:36.178Z,14.32
2018-09-15T12:31:06.026Z,13.66
2018-09-15T12:33:35.334Z,13.29
2018-09-15T12:36:03.782Z,12.91
2018-09-15T12:38:32.404Z,12.45
2018-09-15T12:41:00.945Z,12.42
2018-09-15T12:43:29.422Z,12.46
2018-09-15T12:45:59.107Z,12.03
2018-09-15T12:48:27.609Z,12.16
2018-09-15T12:50:56.254Z,12.83
2018-09-15T12:53:24.779Z,11.78
2018-09-15T12:55:53.297Z,11.90
2018-09-15T12:58:22.377Z,11.40
2018-09-15T13:00:50.910Z,11.10
2018-09-15T13:03:19.479Z,13.15
2018-09-15T13:05:48.450Z,14.41
2018-09-15T13:08:18.075Z,14.01
2018-09-15T13:10:47.215Z,14.79
2018-09-15T13:13:16.125Z,14.93
2018-09-15T13:15:44.660Z,14.45
2018-09-15T13:18:14.499Z,14.01
2018-09-15T13:20:43.417Z,14.53
2018-09-15T13:23:12.032Z,15.06
2018-09-15T13:25:40.533Z,15.62
2018-09-15T13:28:09.043Z,15.63
2018-09-15T13:30:37.962Z,16.77
2018-09-15T13:33:06.561Z,16.61
2018-09-15T13:35:36.770Z,17.95
2018-09-15T13:38:05.364Z,17.71
2018-09-15T13:40:34.242Z,18.36
2018-09-15T13:43:02.802Z,17.80
2018-09-15T13:45:32.496Z,19.50
2018-09-15T13:48:01.191Z,19.63
2018-09-15T13:50:30.535Z,19.52
2018-09-15T13:52:59.015Z,20.04
2018-09-15T13:55:27.589Z,19.35
2018-09-15T13:57:56.155Z,19.21
2018-09-15T14:00:24.741Z,18.76
2018-09-15T14:02:53.933Z,18.80
2018-09-15T14:05:22.532Z,18.21
2018-09-15T14:07:51.049Z,18.58
2018-09-15T14:10:19.842Z,18.86
2018-09-15T14:12:48.620Z,19.56
2018-09-15T14:15:17.270Z,20.16
2018-09-15T14:17:46.218Z,20.25
2018-09-15T14:20:14.756Z,20.67
2018-09-15T14:22:44.632Z,20.44
2018-09-15T14:25:14.851Z,19.71
2018-09-15T14:27:43.368Z,19.49
2018-09-15T14:30:11.885Z,19.72
2018-09-15T14:32:40.807Z,19.18
2018-09-15T14:35:09.760Z,19.34
2018-09-15T14:37:39.061Z,19.47
2018-09-15T14:40:07.640Z,19.24
2018-09-15T14:42:36.161Z,19.03
2018-09-15T14:45:05.345Z,18.79
2018-09-15T14:47:33.979Z,18.93
2018-09-15T14:50:03.019Z,19.17
2018-09-15T14:52:31.501Z,19.44
2018-09-15T14:55:00.027Z,19.01
2018-09-15T14:57:28.513Z,19.54
2018-09-15T14:59:57.077Z,21.13
2018-09-15T15:02:25.631Z,22.75
2018-09-15T15:04:55.114Z,23.28
2018-09-15T15:07:23.849Z,22.83
2018-09-15T15:09:53.238Z,23.58
2018-09-15T15:12:26.113Z,24.23
2018-09-15T15:14:55.409Z,25.20
2018-09-15T15:17:24.671Z,24.29
2018-09-15T15:19:53.417Z,24.92
2018-09-15T15:22:22.018Z,25.10
2018-09-15T15:24:51.207Z,24.34
2018-09-15T15:27:20.105Z,24.01
2018-09-15T15:29:49.626Z,25.35
2018-09-15T15:32:18.164Z,24.72
2018-09-15T15:34:46.924Z,25.42
2018-09-15T15:37:16.266Z,25.42
2018-09-15T15:39:44.863Z,26.07
2018-09-15T15:42:13.662Z,25.83
2018-09-15T15:44:42.143Z,26.42
2018-09-15T15:47:10.743Z,26.85
2018-09-15T15:49:39.396Z,26.47
2018-09-15T15:52:07.943Z,27.15
2018-09-15T15:54:36.504Z,27.63
2018-09-15T15:57:05.103Z,27.17
2018-09-15T15:59:33.627Z,27.60
2018-09-15T16:02:02.694Z,27.37
2018-09-15T16:04:31.682Z,27.13
2018-09-15T16:07:00.096Z,27.75
2018-09-15T16:09:30.705Z,28.55
2018-09-15T16:11:59.753Z,28.31
2018-09-15T16:14:29.062Z,28.10
2018-09-15T16:16:57.611Z,28.25
2018-09-15T16:19:26.253Z,28.11
2018-09-15T16:21:55.577Z,28.52
2018-09-15T16:24:24.227Z,29.04
2018-09-15T16:26:52.784Z,28.69
2018-09-15T16:29:22.225Z,29.31
2018-09-15T16:31:50.774Z,29.05
2018-09-15T16:34:20.194Z,29.12
2018-09-15T16:36:49.659Z,30.19
2018-09-15T16:39:18.320Z,29.50
2018-09-15T16:41:46.897Z,30.45
2018-09-15T16:44:15.485Z,30.31
2018-09-15T16:46:44.042Z,30.10
2018-09-15T16:49:14.241Z,30.06
2018-09-15T16:51:43.479Z,30.55
2018-09-15T16:54:11.969Z,30.72
2018-09-15T16:56:40.564Z,30.74
2018-09-15T16:59:09.827Z,31.18
2018-09-15T17:01:38.413Z,31.29
2018-09-15T17:04:07.022Z,31.57
2018-09-15T17:06:35.525Z,31.98
2018-09-15T17:09:07.041Z,32.35
2018-09-15T17:11:36.192Z,32.52
2018-09-15T17:14:05.286Z,32.41
2018-09-15T17:16:33.896Z,32.46
2018-09-15T17:19:02.995Z,31.78
2018-09-15T17:21:31.977Z,32.10
2018-09-15T17:24:01.818Z,31.98
2018-09-15T17:26:31.086Z,31.92
2018-09-15T17:29:00.489Z,32.64
2018-09-15T17:31:29.131Z,32.60
2018-09-15T17:33:57.649Z,32.84
2018-09-15T17:36:26.736Z,33.06
2018-09-15T17:38:55.204Z,33.42
2018-09-15T17:41:24.407Z,33.45
2018-09-15T17:43:53.596Z,33.24
2018-09-15T17:46:22.452Z,33.87
2018-09-15T17:48:51.005Z,34.42
2018-09-15T17:51:20.345Z,34.52
2018-09-15T17:53:49.083Z,34.08
2018-09-15T17:56:17.639Z,34.18
2018-09-15T17:58:46.580Z,34.47
2018-09-15T18:01:15.656Z,34.71
2018-09-15T18:03:44.289Z,34.95
2018-09-15T18:06:13.122Z,34.82
2018-09-15T18:08:41.722Z,35.26
2018-09-15T18:11:10.903Z,35.36
2018-09-15T18:13:39.767Z,35.84
2018-09-15T18:16:09.221Z,35.83
2018-09-15T18:18:38.661Z,35.89
2018-09-15T18:21:07.170Z,35.79
2018-09-15T18:23:35.823Z,35.60
2018-09-15T18:26:04.393Z,36.20
2018-09-15T18:28:33.634Z,35.89
2018-09-15T18:31:02.404Z,35.94
2018-09-15T18:33:30.953Z,36.48
2018-09-15T18:35:59.872Z,36.86
2018-09-15T18:38:29.178Z,36.78
2018-09-15T18:40:57.682Z,37.01
2018-09-15T18:43:27.497Z,37.31
2018-09-15T18:45:59.332Z,37.42
2018-09-15T18:48:28.626Z,38.40
2018-09-15T18:50:57.215Z,38.17
2018-09-15T18:53:26.367Z,38.36
2018-09-15T18:55:54.951Z,38.47
2018-09-15T18:58:23.578Z,38.99
2018-09-15T19:00:52.138Z,39.10
2018-09-15T19:03:20.628Z,39.42
2018-09-15T19:05:49.246Z,39.61
2018-09-15T19:08:17.753Z,39.45
2018-09-15T19:10:47.435Z,40.00
2018-09-15T19:13:16.636Z,40.49
2018-09-15T19:15:45.413Z,40.79
2018-09-15T19:18:14.189Z,40.63
2018-09-15T19:20:43.623Z,40.89
2018-09-15T19:23:13.209Z,40.87
2018-09-15T19:25:41.757Z,41.30
2018-09-15T19:28:10.900Z,41.00
2018-09-15T19:30:39.565Z,41.46
2018-09-15T19:33:08.058Z,41.78
2018-09-15T19:35:36.957Z,42.37
2018-09-15T19:38:05.629Z,43.33
2018-09-15T19:40:35.299Z,43.52
2018-09-15T19:43:04.640Z,43.69
2018-09-15T19:45:33.850Z,43.62
2018-09-15T19:48:02.984Z,43.04
2018-09-15T19:50:32.211Z,43.69
2018-09-15T19:53:00.842Z,43.51
2018-09-15T19:55:29.413Z,43.68
2018-09-15T19:57:58.656Z,44.06
2018-09-15T20:00:33.885Z,44.41
2018-09-15T20:03:02.859Z,44.61
2018-09-15T20:05:31.545Z,44.93
2018-09-15T20:08:00.491Z,44.75
2018-09-15T20:10:29.756Z,45.07
2018-09-15T20:12:59.089Z,45.33
2018-09-15T20:15:27.515Z,45.66
2018-09-15T20:17:54.772Z,45.13
2018-09-15T20:20:22.728Z,45.94
2018-09-15T20:22:53.275Z,45.77
2018-09-15T20:25:22.325Z,46.83
2018-09-15T20:27:51.010Z,46.71
2018-09-15T20:30:19.822Z,46.83
2018-09-15T20:32:49.206Z,46.58
2018-09-15T20:35:18.337Z,46.85
2018-09-15T20:37:47.535Z,47.67
2018-09-15T20:40:16.101Z,47.37
2018-09-15T20:42:45.194Z,47.67
2018-09-15T20:45:14.391Z,48.40
2018-09-15T20:47:43.605Z,48.15
2018-09-15T20:50:12.172Z,48.40
2018-09-15T20:52:40.815Z,48.31
2018-09-15T20:55:09.544Z,48.56
2018-09-15T20:57:38.097Z,48.79
2018-09-15T21:00:08.080Z,48.04
2018-09-15T21:02:36.792Z,48.63
2018-09-15T21:05:05.929Z,48.51
2018-09-15T21:07:34.674Z,48.57
2018-09-15T21:10:04.045Z,48.88
2018-09-15T21:12:32.556Z,49.08
2018-09-15T21:15:01.041Z,49.58
2018-09-15T21:17:30.864Z,49.49
2018-09-15T21:19:59.366Z,49.94
2018-09-15T21:22:28.232Z,49.65
2018-09-15T21:24:57.513Z,49.56
2018-09-15T21:27:26.816Z,49.74
2018-09-15T21:29:56.172Z,50.23
2018-09-15T21:32:25.417Z,50.33
2018-09-15T21:34:54.716Z,50.39
2018-09-15T21:37:23.351Z,50.76
2018-09-15T21:39:51.939Z,50.54
2018-09-15T21:42:20.483Z,51.05
2018-09-15T21:44:53.176Z,50.94
2018-09-15T21:47:22.285Z,50.82
2018-09-15T21:49:50.854Z,50.84
2018-09-15T21:52:20.485Z,50.87
2018-09-15T21:54:49.294Z,50.85
2018-09-15T21:57:17.828Z,51.17
2018-09-15T21:59:46.905Z,51.58
2018-09-15T22:02:16.131Z,51.51
2018-09-15T22:04:45.407Z,51.64
2018-09-15T22:07:13.874Z,51.95
2018-09-15T22:09:43.048Z,51.72
2018-09-15T22:12:12.253Z,51.76
2018-09-15T22:14:41.560Z,52.19
2018-09-15T22:17:10.049Z,52.14
2018-09-15T22:19:39.021Z,52.85
2018-09-15T22:22:08.210Z,52.95
2018-09-15T22:24:37.398Z,52.71
2018-09-15T22:27:06.940Z,53.04
2018-09-15T22:29:35.521Z,53.11
2018-09-15T22:32:04.306Z,53.32
2018-09-15T22:34:32.847Z,53.68
2018-09-15T22:37:01.869Z,53.54
2018-09-15T22:39:30.346Z,53.89
2018-09-15T22:41:58.872Z,53.86
2018-09-15T22:44:27.438Z,53.92
2018-09-15T22:46:56.756Z,54.28
2018-09-15T22:49:25.971Z,54.02
2018-09-15T22:51:55.154Z,53.70
2018-09-15T22:54:23.715Z,53.76
2018-09-15T22:56:52.252Z,53.53
2018-09-15T22:59:20.750Z,54.09
2018-09-15T23:01:50.631Z,53.98
2018-09-15T23:04:19.144Z,54.00
2018-09-15T23:06:47.857Z,54.76
2018-09-15T23:09:16.668Z,54.62
2018-09-15T23:11:45.623Z,54.51
2018-09-15T23:14:14.277Z,54.46
2018-09-15T23:16:42.863Z,54.71
2018-09-15T23:19:12.099Z,54.72
2018-09-15T23:21:40.592Z,54.34
2018-09-15T23:24:09.796Z,54.70
2018-09-15T23:26:38.336Z,54.53
2018-09-15T23:29:07.031Z,54.68
2018-09-15T23:31:35.489Z,55.20
2018-09-15T23:34:04.010Z,55.64
2018-09-15T23:36:33.061Z,55.62
2018-09-15T23:39:01.559Z,55.66
2018-09-15T23:41:30.100Z,55.79
2018-09-15T23:43:58.716Z,55.76
2018-09-15T23:46:27.892Z,55.95
2018-09-15T23:48:56.395Z,56.17
2018-09-15T23:51:24.855Z,56.29
2018-09-15T23:53:53.840Z,56.65
2018-09-15T23:56:22.473Z,56.88
2018-09-15T23:58:51.035Z,57.35
